createdAt,value
2023-01-21T00:00:45.767Z,101547.28
2023-01-21T00:03:12.886Z,101546.47
2023-01-21T00:05:39.750Z,101559.03
2023-01-21T00:08:06.385Z,101559.56
2023-01-21T00:10:33.601Z,101557.84
2023-01-21T00:13:00.491Z,101566.34
2023-01-21T00:15:27.149Z,101573.41
2023-01-21T00:17:54.441Z,101584.63
2023-01-21T00:20:21.284Z,101584.34
2023-01-21T00:22:47.862Z,101590.78
2023-01-21T00:25:14.428Z,101598.22
2023-01-21T00:27:41.265Z,101591.06
2023-01-21T00:30:08.594Z,101603.47
2023-01-21T00:32:35.251Z,101615.97
2023-01-21T00:35:01.826Z,101614.41
2023-01-21T00:37:28.563Z,101629.09
2023-01-21T00:39:55.248Z,101622.06
2023-01-21T00:42:21.961Z,101619.56
2023-01-21T00:44:48.540Z,101620.19
2023-01-21T00:47:15.333Z,101626.38
2023-01-21T00:49:41.844Z,101620.00
2023-01-21T00:52:08.391Z,101632.09
2023-01-21T00:54:35.259Z,101630.66
2023-01-21T00:57:01.949Z,101636.59
2023-01-21T00:59:28.769Z,101647.06
2023-01-21T01:01:55.591Z,101637.16
2023-01-21T01:04:22.984Z,101654.25
2023-01-21T01:06:49.661Z,101651.69
2023-01-21T01:09:16.677Z,101651.09
2023-01-21T01:11:43.381Z,101655.00
2023-01-21T01:14:09.972Z,101662.44
2023-01-21T01:16:36.699Z,101668.91
2023-01-21T01:19:03.710Z,101671.34
2023-01-21T01:21:30.675Z,101680.44
2023-01-21T01:24:00.581Z,101693.69
2023-01-21T01:26:27.252Z,101687.88
2023-01-21T01:28:53.950Z,101693.91
2023-01-21T01:31:22.275Z,101684.53
2023-01-21T01:33:49.102Z,101684.25
2023-01-21T01:36:23.536Z,101692.19
2023-01-21T01:38:51.097Z,101686.44
2023-01-21T01:41:21.438Z,101692.94
2023-01-21T01:43:49.583Z,101697.41
2023-01-21T01:46:16.715Z,101690.09
2023-01-21T01:48:46.937Z,101697.88
2023-01-21T01:51:16.938Z,101692.84
2023-01-21T01:53:46.062Z,101697.41
2023-01-21T01:56:14.326Z,101704.19
2023-01-21T01:58:41.438Z,101705.16
2023-01-21T02:01:08.291Z,101702.75
2023-01-21T02:03:46.300Z,101702.03
2023-01-21T02:06:15.140Z,101709.81
2023-01-21T02:08:44.644Z,101715.56
2023-01-21T02:11:16.086Z,101712.41
2023-01-21T02:13:45.873Z,101716.44
2023-01-21T02:16:21.592Z,101726.78
2023-01-21T02:19:03.165Z,101728.94
2023-01-21T02:21:47.692Z,101735.13
2023-01-21T02:25:01.927Z,101741.16
2023-01-21T02:28:19.243Z,101744.59
2023-01-21T02:31:14.031Z,101748.69
2023-01-21T02:33:54.041Z,101751.28
2023-01-21T02:36:39.533Z,101749.28
2023-01-21T02:39:40.178Z,101757.63
2023-01-21T02:42:17.255Z,101758.34
2023-01-21T02:44:54.327Z,101764.53
2023-01-21T02:47:37.198Z,101770.16
2023-01-21T02:50:18.989Z,101770.59
2023-01-21T02:52:45.659Z,101768.56
2023-01-21T02:55:15.865Z,101774.53
2023-01-21T02:57:49.049Z,101776.03
2023-01-21T03:00:27.328Z,101785.22
2023-01-21T03:03:15.344Z,101784.25
2023-01-21T03:05:41.817Z,101796.66
2023-01-21T03:08:17.648Z,101799.16
2023-01-21T03:11:05.780Z,101795.63
2023-01-21T03:13:57.358Z,101798.97
2023-01-21T03:16:50.029Z,101800.81
2023-01-21T03:19:18.448Z,101807.34
2023-01-21T03:21:47.117Z,101809.13
2023-01-21T03:24:14.756Z,101808.00
2023-01-21T03:26:48.328Z,101806.59
2023-01-21T03:29:21.203Z,101814.44
2023-01-21T03:31:51.812Z,101821.53
2023-01-21T03:34:20.172Z,101808.00
2023-01-21T03:36:53.257Z,101818.59
2023-01-21T03:39:42.615Z,101826.13
2023-01-21T03:42:10.312Z,101826.63
2023-01-21T03:44:38.053Z,101832.47
2023-01-21T03:47:23.703Z,101835.72
2023-01-21T03:49:54.640Z,101821.91
2023-01-21T03:52:24.175Z,101828.03
2023-01-21T03:54:51.250Z,101832.50
2023-01-21T03:57:17.903Z,101827.91
2023-01-21T03:59:44.608Z,101831.22
2023-01-21T04:02:11.328Z,101827.91
2023-01-21T04:04:37.971Z,101824.56
2023-01-21T04:07:04.824Z,101830.88
2023-01-21T04:09:31.414Z,101815.88
2023-01-21T04:12:00.252Z,101829.06
2023-01-21T04:14:26.970Z,101827.00
2023-01-21T04:16:53.565Z,101834.69
2023-01-21T04:19:20.180Z,101836.22
2023-01-21T04:21:47.012Z,101832.75
2023-01-21T04:24:13.562Z,101838.06
2023-01-21T04:26:40.223Z,101842.63
2023-01-21T04:29:06.904Z,101844.63
2023-01-21T04:31:33.700Z,101848.22
2023-01-21T04:34:00.383Z,101854.94
2023-01-21T04:36:27.112Z,101847.38
2023-01-21T04:38:53.651Z,101848.53
2023-01-21T04:41:20.312Z,101853.72
2023-01-21T04:43:46.898Z,101857.66
2023-01-21T04:46:13.573Z,101864.88
2023-01-21T04:48:40.271Z,101866.50
2023-01-21T04:51:07.812Z,101861.34
2023-01-21T04:53:34.764Z,101876.03
2023-01-21T04:56:01.372Z,101871.16
2023-01-21T04:58:27.871Z,101872.28
2023-01-21T05:00:55.510Z,101873.94
2023-01-21T05:03:22.165Z,101877.75
2023-01-21T05:05:48.791Z,101883.81
2023-01-21T05:08:15.389Z,101891.03
2023-01-21T05:10:42.016Z,101896.25
2023-01-21T05:13:08.508Z,101891.78
2023-01-21T05:15:35.204Z,101899.13
2023-01-21T05:18:01.824Z,101904.88
2023-01-21T05:20:29.114Z,101901.13
2023-01-21T05:22:55.779Z,101903.00
2023-01-21T05:25:22.425Z,101906.31
2023-01-21T05:27:53.896Z,101907.31
2023-01-21T05:30:21.115Z,101906.03
2023-01-21T05:32:54.446Z,101909.22
2023-01-21T05:35:22.717Z,101920.75
2023-01-21T05:37:49.670Z,101908.03
2023-01-21T05:40:17.737Z,101928.41
2023-01-21T05:42:44.539Z,101927.97
2023-01-21T05:45:11.681Z,101933.88
2023-01-21T05:47:38.350Z,101927.94
2023-01-21T05:50:05.469Z,101937.63
2023-01-21T05:52:32.060Z,101931.34
2023-01-21T05:55:02.359Z,101936.06
2023-01-21T05:57:30.283Z,101943.81
2023-01-21T05:59:56.901Z,101941.09
2023-01-21T06:02:25.160Z,101935.69
2023-01-21T06:04:51.766Z,101949.16
2023-01-21T06:07:18.425Z,101953.91
2023-01-21T06:09:44.937Z,101959.25
2023-01-21T06:12:11.580Z,101959.97
2023-01-21T06:14:38.056Z,101953.38
2023-01-21T06:17:04.684Z,101965.78
2023-01-21T06:19:31.202Z,101967.16
2023-01-21T06:21:57.752Z,101967.66
2023-01-21T06:24:24.405Z,101974.25
2023-01-21T06:26:51.146Z,101972.84
2023-01-21T06:29:17.704Z,101979.19
2023-01-21T06:31:44.381Z,101971.66
2023-01-21T06:34:12.555Z,101977.44
2023-01-21T06:36:42.441Z,101987.75
2023-01-21T06:39:11.847Z,101983.28
2023-01-21T06:41:38.589Z,101985.91
2023-01-21T06:44:05.851Z,101992.28
2023-01-21T06:46:33.137Z,101995.16
2023-01-21T06:49:00.137Z,102003.91
2023-01-21T06:51:26.838Z,102005.53
2023-01-21T06:53:53.673Z,102013.63
2023-01-21T06:56:22.148Z,102008.63
2023-01-21T06:58:48.726Z,102011.97
2023-01-21T07:01:15.417Z,102016.31
2023-01-21T07:03:42.042Z,102020.97
2023-01-21T07:06:08.659Z,102027.03
2023-01-21T07:08:35.459Z,102028.97
2023-01-21T07:11:02.198Z,102032.38
2023-01-21T07:13:28.868Z,102034.41
2023-01-21T07:16:01.721Z,102038.50
2023-01-21T07:18:28.490Z,102044.78
2023-01-21T07:20:56.380Z,102049.50
2023-01-21T07:23:23.450Z,102054.44
2023-01-21T07:25:50.099Z,102053.72
2023-01-21T07:28:16.657Z,102054.09
2023-01-21T07:30:43.608Z,102058.00
2023-01-21T07:33:10.978Z,102050.75
2023-01-21T07:35:37.532Z,102063.97
2023-01-21T07:38:04.500Z,102064.06
2023-01-21T07:40:31.151Z,102064.56
2023-01-21T07:42:57.886Z,102070.56
2023-01-21T07:45:25.054Z,102072.94
2023-01-21T07:47:51.671Z,102072.97
2023-01-21T07:50:18.403Z,102070.91
2023-01-21T07:52:44.994Z,102068.38
2023-01-21T07:55:12.732Z,102081.50
2023-01-21T07:57:39.546Z,102091.50
2023-01-21T08:00:07.094Z,102081.03
2023-01-21T08:02:38.691Z,102083.38
2023-01-21T08:05:07.013Z,102095.53
2023-01-21T08:07:33.661Z,102093.97
2023-01-21T08:10:00.301Z,102101.56
2023-01-21T08:12:27.390Z,102105.03
2023-01-21T08:14:54.353Z,102100.66
2023-01-21T08:17:20.941Z,102108.63
2023-01-21T08:19:47.512Z,102098.00
2023-01-21T08:22:14.069Z,102106.97
2023-01-21T08:24:40.593Z,102111.00
2023-01-21T08:27:07.204Z,102114.44
2023-01-21T08:29:33.877Z,102112.28
2023-01-21T08:32:00.539Z,102111.53
2023-01-21T08:34:27.179Z,102115.56
2023-01-21T08:36:53.778Z,102109.88
2023-01-21T08:39:20.539Z,102123.47
2023-01-21T08:41:47.163Z,102120.19
2023-01-21T08:44:15.017Z,102117.19
2023-01-21T08:46:41.616Z,102118.88
2023-01-21T08:49:08.344Z,102119.16
2023-01-21T08:51:34.988Z,102119.53
2023-01-21T08:54:01.618Z,102127.47
2023-01-21T08:56:28.296Z,102131.22
2023-01-21T08:58:56.748Z,102130.56
2023-01-21T09:01:25.638Z,102144.13
2023-01-21T09:03:57.870Z,102139.88
2023-01-21T09:06:26.831Z,102146.75
2023-01-21T09:08:53.923Z,102141.38
2023-01-21T09:11:21.312Z,102141.09
2023-01-21T09:13:47.978Z,102146.00
2023-01-21T09:16:20.109Z,102153.63
2023-01-21T09:18:47.512Z,102148.94
2023-01-21T09:21:15.675Z,102155.56
2023-01-21T09:23:42.937Z,102150.97
2023-01-21T09:26:16.745Z,102160.31
2023-01-21T09:28:46.784Z,102163.41
2023-01-21T09:31:18.480Z,102163.81
2023-01-21T09:33:47.633Z,102167.16
2023-01-21T09:36:18.938Z,102165.72
2023-01-21T09:38:47.203Z,102186.22
2023-01-21T09:41:29.107Z,102174.66
2023-01-21T09:44:31.029Z,102182.22
2023-01-21T09:47:17.916Z,102187.09
2023-01-21T09:49:50.804Z,102189.72
2023-01-21T09:52:36.839Z,102188.84
2023-01-21T09:55:06.156Z,102202.13
2023-01-21T09:57:35.672Z,102200.97
2023-01-21T10:00:29.552Z,102196.78
2023-01-21T10:03:04.512Z,102193.75
2023-01-21T10:05:52.763Z,102207.31
2023-01-21T10:08:27.447Z,102201.41
2023-01-21T10:11:32.671Z,102201.53
2023-01-21T10:14:15.790Z,102210.50
2023-01-21T10:17:05.436Z,102214.25
2023-01-21T10:19:45.384Z,102217.75
2023-01-21T10:22:24.782Z,102204.31
2023-01-21T10:25:18.514Z,102212.50
2023-01-21T10:27:45.982Z,102213.41
2023-01-21T10:30:23.731Z,102205.88
2023-01-21T10:32:52.727Z,102211.94
2023-01-21T10:35:31.251Z,102212.97
2023-01-21T10:38:25.771Z,102209.44
2023-01-21T10:41:00.209Z,102209.94
2023-01-21T10:43:45.851Z,102213.25
2023-01-21T10:46:17.233Z,102214.59
2023-01-21T10:49:23.193Z,102207.50
2023-01-21T10:52:06.400Z,102195.63
2023-01-21T10:55:13.043Z,102209.59
2023-01-21T10:58:12.189Z,102213.56
2023-01-21T11:00:44.411Z,102211.13
2023-01-21T11:03:16.116Z,102200.28
2023-01-21T11:05:43.579Z,102205.75
2023-01-21T11:08:20.426Z,102206.19
2023-01-21T11:10:49.980Z,102202.00
2023-01-21T11:13:16.596Z,102209.88
2023-01-21T11:15:51.650Z,102207.53
2023-01-21T11:18:40.713Z,102206.25
2023-01-21T11:21:20.345Z,102205.00
2023-01-21T11:24:01.295Z,102212.03
2023-01-21T11:26:34.171Z,102206.06
2023-01-21T11:29:11.408Z,102204.66
2023-01-21T11:31:39.571Z,102205.63
2023-01-21T11:34:12.916Z,102201.41
2023-01-21T11:37:06.768Z,102200.84
2023-01-21T11:39:36.790Z,102193.06
2023-01-21T11:42:13.529Z,102196.00
2023-01-21T11:44:52.565Z,102189.66
2023-01-21T11:47:48.879Z,102199.16
2023-01-21T11:50:16.893Z,102187.31
2023-01-21T11:52:44.413Z,102188.72
2023-01-21T11:55:48.980Z,102190.22
2023-01-21T11:58:38.878Z,102194.59
2023-01-21T12:01:09.985Z,102202.19
2023-01-21T12:03:42.905Z,102191.09
2023-01-21T12:06:21.487Z,102189.53
2023-01-21T12:08:51.360Z,102193.69
2023-01-21T12:11:29.613Z,102195.13
2023-01-21T12:14:11.552Z,102191.50
2023-01-21T12:16:45.413Z,102195.47
2023-01-21T12:19:21.217Z,102198.59
2023-01-21T12:22:06.892Z,102191.78
2023-01-21T12:25:04.207Z,102187.31
2023-01-21T12:27:51.819Z,102191.97
2023-01-21T12:30:54.913Z,102186.16
2023-01-21T12:33:36.849Z,102190.81
2023-01-21T12:36:12.867Z,102185.91
2023-01-21T12:38:44.612Z,102180.22
2023-01-21T12:41:32.293Z,102189.59
2023-01-21T12:44:05.537Z,102181.63
2023-01-21T12:46:40.620Z,102183.22
2023-01-21T12:49:16.935Z,102189.28
2023-01-21T12:51:49.483Z,102185.00
2023-01-21T12:54:46.342Z,102192.19
2023-01-21T12:57:25.821Z,102193.91
2023-01-21T13:00:11.606Z,102200.00
2023-01-21T13:02:54.405Z,102196.00
2023-01-21T13:05:45.443Z,102202.88
2023-01-21T13:08:20.762Z,102198.19
2023-01-21T13:10:49.964Z,102196.31
2023-01-21T13:13:20.723Z,102199.44
2023-01-21T13:15:52.764Z,102202.06
2023-01-21T13:18:33.734Z,102208.97
2023-01-21T13:21:23.417Z,102212.09
2023-01-21T13:24:15.337Z,102212.88
2023-01-21T13:27:02.544Z,102212.16
2023-01-21T13:29:35.191Z,102220.41
2023-01-21T13:32:23.775Z,102221.47
2023-01-21T13:35:06.651Z,102210.09
2023-01-21T13:37:43.686Z,102213.59
2023-01-21T13:40:29.208Z,102214.28
2023-01-21T13:43:10.263Z,102219.13
2023-01-21T13:45:55.246Z,102223.31
2023-01-21T13:48:44.672Z,102222.69
2023-01-21T13:51:40.423Z,102227.63
2023-01-21T13:54:16.236Z,102227.47
2023-01-21T13:57:01.634Z,102230.22
2023-01-21T13:59:37.433Z,102231.63
2023-01-21T14:02:40.615Z,102238.44
2023-01-21T14:05:22.654Z,102243.13
2023-01-21T14:07:56.278Z,102240.47
2023-01-21T14:10:50.564Z,102243.41
2023-01-21T14:13:45.115Z,102253.13
2023-01-21T14:16:45.692Z,102250.28
2023-01-21T14:19:31.072Z,102246.56
2023-01-21T14:21:57.556Z,102245.59
2023-01-21T14:24:45.302Z,102248.94
2023-01-21T14:27:24.859Z,102260.47
2023-01-21T14:30:05.188Z,102260.16
2023-01-21T14:32:47.040Z,102245.00
2023-01-21T14:35:21.316Z,102248.84
2023-01-21T14:38:04.048Z,102250.03
2023-01-21T14:40:33.591Z,102250.88
2023-01-21T14:43:00.678Z,102254.31
2023-01-21T14:45:52.407Z,102260.28
2023-01-21T14:48:34.061Z,102261.75
2023-01-21T14:51:12.094Z,102255.72
2023-01-21T14:54:19.402Z,102248.94
2023-01-21T14:57:31.872Z,102254.78
2023-01-21T15:00:10.191Z,102251.16
2023-01-21T15:02:42.499Z,102250.00
2023-01-21T15:05:23.549Z,102264.13
2023-01-21T15:08:04.561Z,102255.22
2023-01-21T15:10:37.670Z,102257.69
2023-01-21T15:13:34.876Z,102257.19
2023-01-21T15:16:16.143Z,102260.38
2023-01-21T15:19:05.228Z,102258.94
2023-01-21T15:21:36.918Z,102249.13
2023-01-21T15:24:35.596Z,102259.09
2023-01-21T15:27:22.467Z,102269.22
2023-01-21T15:29:55.165Z,102268.72
2023-01-21T15:32:37.627Z,102264.09
2023-01-21T15:35:31.204Z,102276.78
2023-01-21T15:38:15.243Z,102267.00
2023-01-21T15:40:46.487Z,102273.09
2023-01-21T15:43:27.019Z,102266.16
2023-01-21T15:45:59.628Z,102270.19
2023-01-21T15:48:48.399Z,102271.53
2023-01-21T15:52:00.171Z,102269.84
2023-01-21T15:54:46.104Z,102272.69
2023-01-21T15:57:30.613Z,102276.94
2023-01-21T16:00:03.053Z,102275.81
2023-01-21T16:02:33.145Z,102279.84
2023-01-21T16:05:30.978Z,102271.69
2023-01-21T16:08:08.610Z,102262.22
2023-01-21T16:10:56.007Z,102269.94
2023-01-21T16:13:52.230Z,102284.69
2023-01-21T16:16:19.016Z,102296.09
2023-01-21T16:19:03.266Z,102291.28
2023-01-21T16:21:43.822Z,102284.13
2023-01-21T16:24:17.062Z,102291.00
2023-01-21T16:26:43.798Z,102281.38
2023-01-21T16:29:13.155Z,102285.34
2023-01-21T16:31:49.168Z,102279.66
2023-01-21T16:34:24.909Z,102279.75
2023-01-21T16:36:51.582Z,102280.47
2023-01-21T16:39:19.273Z,102277.69
2023-01-21T16:42:00.965Z,102280.81
2023-01-21T16:44:28.655Z,102272.50
2023-01-21T16:46:55.962Z,102263.28
2023-01-21T16:49:22.896Z,102268.41
2023-01-21T16:52:00.358Z,102266.78
2023-01-21T16:54:29.683Z,102266.78
2023-01-21T16:57:01.261Z,102267.97
2023-01-21T16:59:37.689Z,102272.16
2023-01-21T17:02:05.785Z,102275.94
2023-01-21T17:04:32.278Z,102273.41
2023-01-21T17:06:59.264Z,102275.19
2023-01-21T17:09:33.676Z,102277.19
2023-01-21T17:12:11.121Z,102265.47
2023-01-21T17:14:37.731Z,102276.22
2023-01-21T17:17:08.224Z,102258.25
2023-01-21T17:19:42.267Z,102276.34
2023-01-21T17:22:21.773Z,102277.66
2023-01-21T17:25:02.124Z,102286.19
2023-01-21T17:27:29.997Z,102290.38
2023-01-21T17:30:18.920Z,102281.00
2023-01-21T17:32:57.966Z,102279.28
2023-01-21T17:35:26.973Z,102282.44
2023-01-21T17:37:56.331Z,102286.47
2023-01-21T17:40:38.024Z,102288.34
2023-01-21T17:43:32.274Z,102289.94
2023-01-21T17:45:59.309Z,102289.81
2023-01-21T17:48:31.055Z,102297.91
2023-01-21T17:51:13.504Z,102301.25
2023-01-21T17:53:46.244Z,102291.81
2023-01-21T17:56:13.181Z,102301.50
2023-01-21T17:58:55.907Z,102306.88
2023-01-21T18:01:22.632Z,102299.19
2023-01-21T18:03:49.373Z,102308.19
2023-01-21T18:06:19.936Z,102305.28
2023-01-21T18:08:46.881Z,102311.91
2023-01-21T18:11:16.211Z,102313.78
2023-01-21T18:13:43.035Z,102314.91
2023-01-21T18:16:10.406Z,102315.94
2023-01-21T18:18:38.093Z,102311.88
2023-01-21T18:21:05.365Z,102304.69
2023-01-21T18:23:32.528Z,102307.88
2023-01-21T18:25:59.268Z,102307.28
2023-01-21T18:28:28.525Z,102295.75
2023-01-21T18:30:57.486Z,102298.78
2023-01-21T18:33:24.964Z,102290.41
2023-01-21T18:35:52.790Z,102296.38
2023-01-21T18:38:27.328Z,102297.56
2023-01-21T18:40:55.408Z,102294.06
2023-01-21T18:43:22.463Z,102298.03
2023-01-21T18:45:49.131Z,102293.41
2023-01-21T18:48:17.010Z,102292.00
2023-01-21T18:50:43.723Z,102287.19
2023-01-21T18:53:11.951Z,102293.97
2023-01-21T18:55:40.009Z,102289.78
2023-01-21T18:58:13.950Z,102291.84
2023-01-21T19:00:41.462Z,102284.19
2023-01-21T19:03:11.857Z,102282.88
2023-01-21T19:05:40.861Z,102286.34
2023-01-21T19:08:24.501Z,102288.91
2023-01-21T19:10:51.548Z,102291.25
2023-01-21T19:13:18.053Z,102285.88
2023-01-21T19:15:45.269Z,102278.81
2023-01-21T19:18:15.751Z,102273.78
2023-01-21T19:20:42.998Z,102273.06
2023-01-21T19:23:16.109Z,102276.38
2023-01-21T19:25:49.738Z,102272.63
2023-01-21T19:28:16.470Z,102274.19
2023-01-21T19:30:45.092Z,102268.56
2023-01-21T19:33:12.448Z,102271.75
2023-01-21T19:35:42.470Z,102276.38
2023-01-21T19:38:16.365Z,102270.31
2023-01-21T19:40:42.937Z,102268.88
2023-01-21T19:43:14.113Z,102267.88
2023-01-21T19:45:41.139Z,102268.72
2023-01-21T19:48:13.395Z,102270.16
2023-01-21T19:50:40.327Z,102265.41
2023-01-21T19:53:06.890Z,102271.59
2023-01-21T19:55:36.751Z,102263.03
2023-01-21T19:58:09.903Z,102267.09
2023-01-21T20:00:36.625Z,102262.44
2023-01-21T20:03:03.427Z,102263.78
2023-01-21T20:05:34.432Z,102265.78
2023-01-21T20:08:02.301Z,102271.41
2023-01-21T20:10:30.261Z,102266.34
2023-01-21T20:12:57.269Z,102268.66
2023-01-21T20:15:29.002Z,102275.75
2023-01-21T20:17:57.834Z,102269.63
2023-01-21T20:20:27.252Z,102277.00
2023-01-21T20:22:54.214Z,102266.75
2023-01-21T20:25:35.149Z,102266.91
2023-01-21T20:28:04.124Z,102265.88
2023-01-21T20:30:32.722Z,102270.81
2023-01-21T20:33:01.403Z,102271.97
2023-01-21T20:35:28.029Z,102266.50
2023-01-21T20:37:56.514Z,102269.66
2023-01-21T20:40:30.684Z,102276.63
2023-01-21T20:42:57.818Z,102275.75
2023-01-21T20:45:30.389Z,102277.56
2023-01-21T20:47:59.563Z,102276.84
2023-01-21T20:50:33.429Z,102273.94
2023-01-21T20:52:59.993Z,102283.34
2023-01-21T20:55:28.197Z,102285.53
2023-01-21T20:57:55.292Z,102280.94
2023-01-21T21:00:32.401Z,102283.72
2023-01-21T21:02:59.023Z,102283.59
2023-01-21T21:05:27.639Z,102286.19
2023-01-21T21:07:54.980Z,102283.19
2023-01-21T21:10:29.435Z,102278.69
2023-01-21T21:12:58.572Z,102283.59
2023-01-21T21:15:30.736Z,102284.63
2023-01-21T21:17:58.632Z,102287.94
2023-01-21T21:20:30.565Z,102279.56
2023-01-21T21:22:57.223Z,102285.63
2023-01-21T21:25:26.094Z,102287.66
2023-01-21T21:27:53.957Z,102272.75
2023-01-21T21:30:32.434Z,102271.47
2023-01-21T21:33:00.861Z,102270.72
2023-01-21T21:35:32.808Z,102269.72
2023-01-21T21:38:04.419Z,102270.16
2023-01-21T21:40:31.293Z,102266.84
2023-01-21T21:43:17.016Z,102260.63
2023-01-21T21:46:02.352Z,102260.03
2023-01-21T21:48:39.004Z,102269.44
2023-01-21T21:51:11.537Z,102259.50
2023-01-21T21:53:39.787Z,102261.91
2023-01-21T21:56:14.807Z,102252.25
2023-01-21T21:58:41.684Z,102262.22
2023-01-21T22:01:09.419Z,102260.78
2023-01-21T22:03:36.021Z,102254.28
2023-01-21T22:06:03.927Z,102256.72
2023-01-21T22:08:35.665Z,102257.31
2023-01-21T22:11:05.387Z,102259.19
2023-01-21T22:13:35.091Z,102259.91
2023-01-21T22:16:02.157Z,102260.19
2023-01-21T22:18:30.966Z,102262.81
2023-01-21T22:21:06.244Z,102264.25
2023-01-21T22:23:33.832Z,102259.03
2023-01-21T22:26:05.646Z,102266.13
2023-01-21T22:28:33.363Z,102263.53
2023-01-21T22:31:05.497Z,102262.22
2023-01-21T22:33:33.473Z,102261.19
2023-01-21T22:36:07.761Z,102270.91
2023-01-21T22:38:35.695Z,102261.50
2023-01-21T22:41:03.325Z,102267.28
2023-01-21T22:43:31.098Z,102259.78
2023-01-21T22:45:59.460Z,102268.88
2023-01-21T22:48:26.373Z,102271.75
2023-01-21T22:50:54.878Z,102276.09
2023-01-21T22:53:22.251Z,102280.41
2023-01-21T22:56:01.014Z,102282.44
2023-01-21T22:58:29.997Z,102280.72
2023-01-21T23:00:57.624Z,102277.53
2023-01-21T23:03:25.373Z,102267.88
2023-01-21T23:05:52.247Z,102271.16
2023-01-21T23:08:19.596Z,102260.19
2023-01-21T23:10:47.276Z,102248.34
2023-01-21T23:13:15.096Z,102257.91
2023-01-21T23:15:46.575Z,102264.38
2023-01-21T23:18:14.719Z,102263.78
2023-01-21T23:20:42.993Z,102252.69
2023-01-21T23:23:11.785Z,102244.00
2023-01-21T23:25:43.263Z,102252.09
2023-01-21T23:28:11.354Z,102247.47
2023-01-21T23:30:37.913Z,102243.28
2023-01-21T23:33:04.699Z,102240.25
2023-01-21T23:35:34.063Z,102238.81
2023-01-21T23:38:02.244Z,102223.03
2023-01-21T23:40:28.802Z,102226.09
2023-01-21T23:42:55.362Z,102229.44
2023-01-21T23:45:21.872Z,102223.94
2023-01-21T23:47:48.520Z,102231.88
2023-01-21T23:50:15.556Z,102230.44
2023-01-21T23:52:42.463Z,102235.38
2023-01-21T23:55:10.343Z,102239.69
2023-01-21T23:57:37.264Z,102241.97
